Catania — V2GH3 — position and weather

sailwx.info

Track history (hours):
 
Tides and Currents Weather Stations Pressure Air Temp Water Temp Dewpoint Dewpoint Depression Visibility Wind Speed Wind Dir Waves Ship Positions

Catania

Last reported at 2017-Dec-11 17:00 UTC. Time now 2017-Dec-14 10:18 UTC.
Position N 60°02' E 004°38'.

Length 87 m.

Type: Cargo ship. MMSI: 203888028.

Date/timePositionNaut miles runAvg speedWind from/ knotsBaromVisibWave heightAir tempDewpointWater temp
2017-Dec-11 17:00N 60°02' E 004°38'4 8.3
2017-Dec-11 16:30N 60°06' E 004°38'4 8.5
2017-Dec-11 16:00N 60°10' E 004°37'4 8.4
2017-Dec-11 15:30N 60°14' E 004°37'4 8.5
2017-Dec-11 15:00N 60°19' E 004°37'4 8.4
2017-Dec-11 14:30N 60°23' E 004°35'4 8.2
2017-Dec-11 14:01N 60°27' E 004°34'4 8.1
2017-Dec-11 13:30N 60°31' E 004°32'4 7.9
2017-Dec-11 13:00N 60°35' E 004°30'4 7.6
2017-Dec-11 12:30N 60°38' E 004°29'4 7.2
2017-Dec-11 12:00N 60°42' E 004°28'4 7.2
2017-Dec-11 11:30N 60°46' E 004°26'3 6.7
2017-Dec-11 11:00N 60°49' E 004°25'4 7.0
2017-Dec-11 10:30N 60°52' E 004°24'3 6.8
2017-Dec-11 09:59N 60°56' E 004°22'3 7.0
2017-Dec-11 09:30N 60°59' E 004°21'3 6.5
2017-Dec-11 09:00N 61°02' E 004°20'3 5.7
2017-Dec-11 08:30N 61°05' E 004°19'3 5.7
2017-Dec-11 08:00N 61°08' E 004°18'3 5.9
2017-Dec-11 07:30N 61°11' E 004°18'3 5.9
2017-Dec-11 07:01N 61°14' E 004°19'3 5.9
2017-Dec-11 06:31N 61°17' E 004°20'3 5.3
2017-Dec-11 06:00N 61°19' E 004°21'3 5.7
2017-Dec-11 05:29N 61°22' E 004°22'3 5.5
2017-Dec-11 05:00N 61°25' E 004°23'3 5.4
2017-Dec-11 04:31N 61°27' E 004°23'3 5.3
2017-Dec-11 04:00N 61°30' E 004°24'3 5.2
2017-Dec-11 03:29N 61°33' E 004°25'2 5.2
2017-Dec-11 03:01N 61°35' E 004°25'2 4.9
2017-Dec-11 02:30N 61°38' E 004°26'2 4.5
2017-Dec-11 02:00N 61°40' E 004°26'3 5.3
2017-Dec-11 01:30N 61°42' E 004°28'3 5.7
2017-Dec-11 01:00N 61°45' E 004°29'3 5.5
2017-Dec-11 00:30N 61°48' E 004°31'3 5.7
2017-Dec-11 00:00N 61°51' E 004°33'3 5.6
2017-Dec-10 23:30N 61°53' E 004°35'3 5.3
2017-Dec-10 23:00N 61°56' E 004°36'3 5.7
2017-Dec-10 22:30N 61°59' E 004°38'3 5.8
2017-Dec-10 22:00N 62°01' E 004°40'3 5.9
2017-Dec-10 21:30N 62°04' E 004°43'3 5.8
2017-Dec-10 21:00N 62°07' E 004°45'3 6.6
2017-Dec-10 20:29N 62°10' E 004°48'4 7.2
2017-Dec-10 20:00N 62°13' E 004°51'4 7.4
2017-Dec-10 19:30N 62°16' E 004°54'4 7.4
2017-Dec-10 19:00N 62°20' E 004°59'4 7.6
2017-Dec-10 18:29N 62°22' E 005°04'4 8.1
2017-Dec-10 18:00N 62°25' E 005°10'4 8.5
2017-Dec-10 17:29N 62°28' E 005°16'4 8.4
2017-Dec-10 17:00N 62°32' E 005°22'4 8.5
2017-Dec-10 16:30N 62°34' E 005°29'4 8.1
2017-Dec-10 16:00N 62°37' E 005°35'4 8.2
2017-Dec-10 15:30N 62°40' E 005°41'4 8.4
2017-Dec-10 15:00N 62°43' E 005°47'4 8.1
2017-Dec-10 14:30N 62°46' E 005°53'4 8.0
2017-Dec-10 14:00N 62°49' E 005°60'4 7.8
2017-Dec-10 13:30N 62°52' E 006°05'4 7.6
2017-Dec-10 13:00N 62°55' E 006°11'4 7.2
2017-Dec-10 12:30N 62°57' E 006°16'4 7.4
2017-Dec-10 12:00N 63°00' E 006°22'4 7.3
2017-Dec-10 11:30N 63°03' E 006°27'3 6.7
2017-Dec-10 11:00N 63°05' E 006°33'3 6.6
2017-Dec-10 10:30N 63°07' E 006°39'3 6.9
2017-Dec-10 10:00N 63°10' E 006°43'4 7.5
2017-Dec-10 09:30N 63°13' E 006°48'4 7.3
2017-Dec-10 09:00N 63°16' E 006°53'4 7.0
2017-Dec-10 08:30N 63°18' E 006°58'3 6.8
2017-Dec-10 08:00N 63°21' E 007°03'3 6.9
2017-Dec-10 07:30N 63°23' E 007°08'3 6.9
2017-Dec-10 07:00N 63°26' E 007°13'3 6.8
2017-Dec-10 06:30N 63°29' E 007°18'3 6.7
2017-Dec-10 06:00N 63°31' E 007°22'3 6.4
2017-Dec-10 05:30N 63°34' E 007°27'3 6.5
2017-Dec-10 05:00N 63°37' E 007°31'3 6.5
2017-Dec-10 04:30N 63°39' E 007°36'3 5.7
2017-Dec-10 03:59N 63°41' E 007°40'3 5.2
2017-Dec-10 03:30N 63°43' E 007°44'2 4.4
2017-Dec-10 03:00N 63°45' E 007°47'2 4.1
2017-Dec-10 02:30N 63°47' E 007°50'2 4.7
2017-Dec-10 02:00N 63°48' E 007°53'2 4.9
2017-Dec-10 01:30N 63°50' E 007°56'2 4.7
2017-Dec-10 01:00N 63°52' E 007°60'2 4.5
2017-Dec-10 00:30N 63°54' E 008°03'3 5.1
2017-Dec-10 00:00N 63°56' E 008°06'3 5.8
2017-Dec-09 23:30N 63°58' E 008°10'166 6.7
2017-Dec-08 22:45N 66°17' E 011°47'2 7.4
2017-Dec-08 22:30N 66°17' E 011°51'4 7.8
2017-Dec-08 21:59N 66°17' E 012°01'4 8.2
2017-Dec-08 21:30N 66°17' E 012°11'4 8.0
2017-Dec-08 21:00N 66°16' E 012°21'4 8.4
2017-Dec-08 20:30N 66°15' E 012°31'4 8.9
2017-Dec-08 20:00N 66°17' E 012°41'5 9.9
2017-Dec-08 19:30N 66°20' E 012°51'4 8.9
2017-Dec-08 19:00N 66°23' E 012°58'5 9.5
2017-Dec-08 18:30N 66°28' E 012°59'4 8.7
2017-Dec-08 17:59N 66°32' E 012°58'4 8.1
2017-Dec-08 17:30N 66°36' E 013°04'5 9.2
2017-Dec-08 17:00N 66°40' E 013°07'5 9.6
2017-Dec-08 16:30N 66°44' E 013°12'5 9.4
2017-Dec-08 16:00N 66°48' E 013°21'5 9.6
2017-Dec-08 15:30N 66°49' E 013°32'5 9.8
2017-Dec-08 15:00N 66°49' E 013°45'4 0.1
2017-Dec-07 03:34N 66°49' E 013°56'0 0.0
2017-Dec-07 03:22N 66°49' E 013°56'0 0.0
2017-Dec-07 02:58N 66°49' E 013°56'0 0.0
2017-Dec-07 02:28N 66°49' E 013°56'0 0.0
2017-Dec-07 01:58N 66°49' E 013°56'0 0.0
2017-Dec-07 01:28N 66°49' E 013°56'0 0.0
2017-Dec-07 00:58N 66°49' E 013°56'0 0.0
2017-Dec-07 00:10N 66°49' E 013°56'0 0.0
2017-Dec-06 23:52N 66°49' E 013°56'0 0.0
2017-Dec-06 23:16N 66°49' E 013°56'0 0.0
2017-Dec-06 22:25N 66°49' E 013°56'0 0.0
2017-Dec-06 21:55N 66°49' E 013°56'0 0.0
2017-Dec-06 21:25N 66°49' E 013°56'  
2017-Dec-03 14:41N 66°48' E 013°53'3 9.2
2017-Dec-03 14:23N 66°49' E 013°46'1 3.3
2017-Dec-03 13:56N 66°50' E 013°45'0 0.0
2017-Dec-03 13:17N 66°50' E 013°45'0 0.1
2017-Dec-03 12:56N 66°50' E 013°45'0 0.3
2017-Dec-03 12:29N 66°50' E 013°45'0 0.2
2017-Dec-03 11:56N 66°50' E 013°45'0 0.1
2017-Dec-03 11:29N 66°50' E 013°45'0 0.0
2017-Dec-03 10:59N 66°50' E 013°45'0 0.0
2017-Dec-03 10:26N 66°50' E 013°45'0 0.1
2017-Dec-03 09:56N 66°50' E 013°45'0 0.1
2017-Dec-03 09:29N 66°50' E 013°45'0 0.0
2017-Dec-03 08:53N 66°50' E 013°45'0 0.1
2017-Dec-03 08:26N 66°50' E 013°45'0 0.1
2017-Dec-03 07:59N 66°50' E 013°45'0 0.0
2017-Dec-03 07:29N 66°50' E 013°45'0 0.1
2017-Dec-03 06:59N 66°50' E 013°45'0 0.1
2017-Dec-03 06:29N 66°50' E 013°45'0 0.0
2017-Dec-03 05:59N 66°50' E 013°45'0 0.0
2017-Dec-03 05:29N 66°50' E 013°45'0 0.0
2017-Dec-03 04:59N 66°50' E 013°45'0 0.0
2017-Dec-03 04:26N 66°50' E 013°45'0 0.0
2017-Dec-03 03:53N 66°50' E 013°45'0 0.0
2017-Dec-03 03:29N 66°50' E 013°45'0 0.0
2017-Dec-03 02:56N 66°50' E 013°45'0 0.1
2017-Dec-03 02:23N 66°50' E 013°45'0 0.1
2017-Dec-03 01:53N 66°50' E 013°45'0 0.0
2017-Dec-03 01:29N 66°50' E 013°45'0 0.0
2017-Dec-03 00:59N 66°50' E 013°45'0 0.0
2017-Dec-03 00:29N 66°50' E 013°45'0 0.0
2017-Dec-02 23:59N 66°50' E 013°45'0 0.0
2017-Dec-02 23:26N 66°50' E 013°45'0 0.1
2017-Dec-02 22:59N 66°50' E 013°45'0 0.0
2017-Dec-02 22:23N 66°50' E 013°45'0 0.0
2017-Dec-02 21:56N 66°50' E 013°45'0 0.1
2017-Dec-02 21:26N 66°50' E 013°45'0 0.1
2017-Dec-02 20:56N 66°50' E 013°45'0 0.0
2017-Dec-02 20:29N 66°50' E 013°45'0 0.1
2017-Dec-02 19:59N 66°50' E 013°45'0 0.1
2017-Dec-02 19:29N 66°50' E 013°45'0 0.1
2017-Dec-02 18:59N 66°50' E 013°45'0 0.0
2017-Dec-02 18:26N 66°50' E 013°45'0 0.0
2017-Dec-02 17:56N 66°50' E 013°45'0 0.0
2017-Dec-02 17:29N 66°50' E 013°45'0 0.0
2017-Dec-02 16:59N 66°50' E 013°45'0 0.0
2017-Dec-02 16:29N 66°50' E 013°45'0 0.1
2017-Dec-02 15:47N 66°50' E 013°45'0 0.0
2017-Dec-02 15:29N 66°51' E 013°45'0 0.0
2017-Dec-02 14:53N 66°51' E 013°45'0 0.0
2017-Dec-02 13:59N 66°50' E 013°45'0 0.2
2017-Dec-02 13:23N 66°50' E 013°45'0 0.0
2017-Dec-02 12:56N 66°50' E 013°45'0 0.0
2017-Dec-02 12:26N 66°50' E 013°45'0 0.1
2017-Dec-02 11:59N 66°50' E 013°45'0 0.1
2017-Dec-02 11:23N 66°50' E 013°45'0 0.1
2017-Dec-02 10:50N 66°50' E 013°45'0 0.0
2017-Dec-02 10:20N 66°50' E 013°45'0 0.0
2017-Dec-02 09:29N 66°50' E 013°45'0 0.1
2017-Dec-02 08:59N 66°50' E 013°45'0 0.0
2017-Dec-02 08:29N 66°50' E 013°45'0 0.0
2017-Dec-02 07:59N 66°50' E 013°45'0 0.0
2017-Dec-02 07:29N 66°50' E 013°45'0 0.0
2017-Dec-02 06:59N 66°50' E 013°45'0 0.1
2017-Dec-02 06:26N 66°50' E 013°45'0 0.0
2017-Dec-02 05:59N 66°50' E 013°45'0 0.1
2017-Dec-02 05:29N 66°50' E 013°45'0 0.0
2017-Dec-02 04:56N 66°50' E 013°45'0 0.1
2017-Dec-02 04:29N 66°50' E 013°45'0 0.0
2017-Dec-02 03:59N 66°50' E 013°45'0 0.2
2017-Dec-02 03:29N 66°50' E 013°45'0 0.1
2017-Dec-02 02:47N 66°50' E 013°45'0 0.0
2017-Dec-02 02:23N 66°50' E 013°45'0 0.1
2017-Dec-02 01:59N 66°50' E 013°45'0 0.1
2017-Dec-02 01:23N 66°50' E 013°45'0 0.1
2017-Dec-02 00:59N 66°50' E 013°45'0 0.1
2017-Dec-02 00:29N 66°50' E 013°45'0 0.0
2017-Dec-01 23:59N 66°50' E 013°45'0 0.1
2017-Dec-01 23:29N 66°50' E 013°45'0 0.1
2017-Dec-01 22:59N 66°50' E 013°45'0 0.1
2017-Dec-01 22:29N 66°50' E 013°45'0 0.2
2017-Dec-01 21:59N 66°50' E 013°45'0 0.1
2017-Dec-01 21:29N 66°50' E 013°45'0 0.1
2017-Dec-01 20:59N 66°50' E 013°45'0 0.0
2017-Dec-01 20:29N 66°50' E 013°45'0 0.1
2017-Dec-01 19:59N 66°50' E 013°45'0 0.1
2017-Dec-01 19:29N 66°50' E 013°45'0 0.0
2017-Dec-01 18:56N 66°50' E 013°45'0 0.1
2017-Dec-01 18:29N 66°50' E 013°45'0 0.0
2017-Dec-01 17:50N 66°50' E 013°45'0 0.0
2017-Dec-01 17:29N 66°50' E 013°45'  
Track history (hours):
 
Tides and Currents Weather Stations Pressure Air Temp Water Temp Dewpoint Dewpoint Depression Visibility Wind Speed Wind Dir Waves Ship Positions

Catania

Last reported at 2017-Dec-11 17:00 UTC. Time now 2017-Dec-14 10:18 UTC.
Position N 60°02' E 004°38'.

Length 87 m.

Type: Cargo ship. MMSI: 203888028.

Date/timePositionNaut miles runAvg speedWind from/ knotsBaromVisibWave heightAir tempDewpointWater temp
2017-Dec-11 17:00N 60°02' E 004°38'4 8.3
2017-Dec-11 16:30N 60°06' E 004°38'4 8.5
2017-Dec-11 16:00N 60°10' E 004°37'4 8.4
2017-Dec-11 15:30N 60°14' E 004°37'4 8.5
2017-Dec-11 15:00N 60°19' E 004°37'4 8.4
2017-Dec-11 14:30N 60°23' E 004°35'4 8.2
2017-Dec-11 14:01N 60°27' E 004°34'4 8.1
2017-Dec-11 13:30N 60°31' E 004°32'4 7.9
2017-Dec-11 13:00N 60°35' E 004°30'4 7.6
2017-Dec-11 12:30N 60°38' E 004°29'4 7.2
2017-Dec-11 12:00N 60°42' E 004°28'4 7.2
2017-Dec-11 11:30N 60°46' E 004°26'3 6.7
2017-Dec-11 11:00N 60°49' E 004°25'4 7.0
2017-Dec-11 10:30N 60°52' E 004°24'3 6.8
2017-Dec-11 09:59N 60°56' E 004°22'3 7.0
2017-Dec-11 09:30N 60°59' E 004°21'3 6.5
2017-Dec-11 09:00N 61°02' E 004°20'3 5.7
2017-Dec-11 08:30N 61°05' E 004°19'3 5.7
2017-Dec-11 08:00N 61°08' E 004°18'3 5.9
2017-Dec-11 07:30N 61°11' E 004°18'3 5.9
2017-Dec-11 07:01N 61°14' E 004°19'3 5.9
2017-Dec-11 06:31N 61°17' E 004°20'3 5.3
2017-Dec-11 06:00N 61°19' E 004°21'3 5.7
2017-Dec-11 05:29N 61°22' E 004°22'3 5.5
2017-Dec-11 05:00N 61°25' E 004°23'3 5.4
2017-Dec-11 04:31N 61°27' E 004°23'3 5.3
2017-Dec-11 04:00N 61°30' E 004°24'3 5.2
2017-Dec-11 03:29N 61°33' E 004°25'2 5.2
2017-Dec-11 03:01N 61°35' E 004°25'2 4.9
2017-Dec-11 02:30N 61°38' E 004°26'2 4.5
2017-Dec-11 02:00N 61°40' E 004°26'3 5.3
2017-Dec-11 01:30N 61°42' E 004°28'3 5.7
2017-Dec-11 01:00N 61°45' E 004°29'3 5.5
2017-Dec-11 00:30N 61°48' E 004°31'3 5.7
2017-Dec-11 00:00N 61°51' E 004°33'3 5.6
2017-Dec-10 23:30N 61°53' E 004°35'3 5.3
2017-Dec-10 23:00N 61°56' E 004°36'3 5.7
2017-Dec-10 22:30N 61°59' E 004°38'3 5.8
2017-Dec-10 22:00N 62°01' E 004°40'3 5.9
2017-Dec-10 21:30N 62°04' E 004°43'3 5.8
2017-Dec-10 21:00N 62°07' E 004°45'3 6.6
2017-Dec-10 20:29N 62°10' E 004°48'4 7.2
2017-Dec-10 20:00N 62°13' E 004°51'4 7.4
2017-Dec-10 19:30N 62°16' E 004°54'4 7.4
2017-Dec-10 19:00N 62°20' E 004°59'4 7.6
2017-Dec-10 18:29N 62°22' E 005°04'4 8.1
2017-Dec-10 18:00N 62°25' E 005°10'4 8.5
2017-Dec-10 17:29N 62°28' E 005°16'4 8.4
2017-Dec-10 17:00N 62°32' E 005°22'4 8.5
2017-Dec-10 16:30N 62°34' E 005°29'4 8.1
2017-Dec-10 16:00N 62°37' E 005°35'4 8.2
2017-Dec-10 15:30N 62°40' E 005°41'4 8.4
2017-Dec-10 15:00N 62°43' E 005°47'4 8.1
2017-Dec-10 14:30N 62°46' E 005°53'4 8.0
2017-Dec-10 14:00N 62°49' E 005°60'4 7.8
2017-Dec-10 13:30N 62°52' E 006°05'4 7.6
2017-Dec-10 13:00N 62°55' E 006°11'4 7.2
2017-Dec-10 12:30N 62°57' E 006°16'4 7.4
2017-Dec-10 12:00N 63°00' E 006°22'4 7.3
2017-Dec-10 11:30N 63°03' E 006°27'3 6.7
2017-Dec-10 11:00N 63°05' E 006°33'3 6.6
2017-Dec-10 10:30N 63°07' E 006°39'3 6.9
2017-Dec-10 10:00N 63°10' E 006°43'4 7.5
2017-Dec-10 09:30N 63°13' E 006°48'4 7.3
2017-Dec-10 09:00N 63°16' E 006°53'4 7.0
2017-Dec-10 08:30N 63°18' E 006°58'3 6.8
2017-Dec-10 08:00N 63°21' E 007°03'3 6.9
2017-Dec-10 07:30N 63°23' E 007°08'3 6.9
2017-Dec-10 07:00N 63°26' E 007°13'3 6.8
2017-Dec-10 06:30N 63°29' E 007°18'3 6.7
2017-Dec-10 06:00N 63°31' E 007°22'3 6.4
2017-Dec-10 05:30N 63°34' E 007°27'3 6.5
2017-Dec-10 05:00N 63°37' E 007°31'3 6.5
2017-Dec-10 04:30N 63°39' E 007°36'3 5.7
2017-Dec-10 03:59N 63°41' E 007°40'3 5.2
2017-Dec-10 03:30N 63°43' E 007°44'2 4.4
2017-Dec-10 03:00N 63°45' E 007°47'2 4.1
2017-Dec-10 02:30N 63°47' E 007°50'2 4.7
2017-Dec-10 02:00N 63°48' E 007°53'2 4.9
2017-Dec-10 01:30N 63°50' E 007°56'2 4.7
2017-Dec-10 01:00N 63°52' E 007°60'2 4.5
2017-Dec-10 00:30N 63°54' E 008°03'3 5.1
2017-Dec-10 00:00N 63°56' E 008°06'3 5.8
2017-Dec-09 23:30N 63°58' E 008°10'166 6.7
2017-Dec-08 22:45N 66°17' E 011°47'2 7.4
2017-Dec-08 22:30N 66°17' E 011°51'4 7.8
2017-Dec-08 21:59N 66°17' E 012°01'4 8.2
2017-Dec-08 21:30N 66°17' E 012°11'4 8.0
2017-Dec-08 21:00N 66°16' E 012°21'4 8.4
2017-Dec-08 20:30N 66°15' E 012°31'4 8.9
2017-Dec-08 20:00N 66°17' E 012°41'5 9.9
2017-Dec-08 19:30N 66°20' E 012°51'4 8.9
2017-Dec-08 19:00N 66°23' E 012°58'5 9.5
2017-Dec-08 18:30N 66°28' E 012°59'4 8.7
2017-Dec-08 17:59N 66°32' E 012°58'4 8.1
2017-Dec-08 17:30N 66°36' E 013°04'5 9.2
2017-Dec-08 17:00N 66°40' E 013°07'5 9.6
2017-Dec-08 16:30N 66°44' E 013°12'5 9.4
2017-Dec-08 16:00N 66°48' E 013°21'5 9.6
2017-Dec-08 15:30N 66°49' E 013°32'5 9.8
2017-Dec-08 15:00N 66°49' E 013°45'4 0.1
2017-Dec-07 03:34N 66°49' E 013°56'0 0.0
2017-Dec-07 03:22N 66°49' E 013°56'0 0.0
2017-Dec-07 02:58N 66°49' E 013°56'0 0.0
2017-Dec-07 02:28N 66°49' E 013°56'0 0.0
2017-Dec-07 01:58N 66°49' E 013°56'0 0.0
2017-Dec-07 01:28N 66°49' E 013°56'0 0.0
2017-Dec-07 00:58N 66°49' E 013°56'0 0.0
2017-Dec-07 00:10N 66°49' E 013°56'0 0.0
2017-Dec-06 23:52N 66°49' E 013°56'0 0.0
2017-Dec-06 23:16N 66°49' E 013°56'0 0.0
2017-Dec-06 22:25N 66°49' E 013°56'0 0.0
2017-Dec-06 21:55N 66°49' E 013°56'0 0.0
2017-Dec-06 21:25N 66°49' E 013°56'  
2017-Dec-03 14:41N 66°48' E 013°53'3 9.2
2017-Dec-03 14:23N 66°49' E 013°46'1 3.3
2017-Dec-03 13:56N 66°50' E 013°45'0 0.0
2017-Dec-03 13:17N 66°50' E 013°45'0 0.1
2017-Dec-03 12:56N 66°50' E 013°45'0 0.3
2017-Dec-03 12:29N 66°50' E 013°45'0 0.2
2017-Dec-03 11:56N 66°50' E 013°45'0 0.1
2017-Dec-03 11:29N 66°50' E 013°45'0 0.0
2017-Dec-03 10:59N 66°50' E 013°45'0 0.0
2017-Dec-03 10:26N 66°50' E 013°45'0 0.1
2017-Dec-03 09:56N 66°50' E 013°45'0 0.1
2017-Dec-03 09:29N 66°50' E 013°45'0 0.0
2017-Dec-03 08:53N 66°50' E 013°45'0 0.1
2017-Dec-03 08:26N 66°50' E 013°45'0 0.1
2017-Dec-03 07:59N 66°50' E 013°45'0 0.0
2017-Dec-03 07:29N 66°50' E 013°45'0 0.1
2017-Dec-03 06:59N 66°50' E 013°45'0 0.1
2017-Dec-03 06:29N 66°50' E 013°45'0 0.0
2017-Dec-03 05:59N 66°50' E 013°45'0 0.0
2017-Dec-03 05:29N 66°50' E 013°45'0 0.0
2017-Dec-03 04:59N 66°50' E 013°45'0 0.0
2017-Dec-03 04:26N 66°50' E 013°45'0 0.0
2017-Dec-03 03:53N 66°50' E 013°45'0 0.0
2017-Dec-03 03:29N 66°50' E 013°45'0 0.0
2017-Dec-03 02:56N 66°50' E 013°45'0 0.1
2017-Dec-03 02:23N 66°50' E 013°45'0 0.1
2017-Dec-03 01:53N 66°50' E 013°45'0 0.0
2017-Dec-03 01:29N 66°50' E 013°45'0 0.0
2017-Dec-03 00:59N 66°50' E 013°45'0 0.0
2017-Dec-03 00:29N 66°50' E 013°45'0 0.0
2017-Dec-02 23:59N 66°50' E 013°45'0 0.0
2017-Dec-02 23:26N 66°50' E 013°45'0 0.1
2017-Dec-02 22:59N 66°50' E 013°45'0 0.0
2017-Dec-02 22:23N 66°50' E 013°45'0 0.0
2017-Dec-02 21:56N 66°50' E 013°45'0 0.1
2017-Dec-02 21:26N 66°50' E 013°45'0 0.1
2017-Dec-02 20:56N 66°50' E 013°45'0 0.0
2017-Dec-02 20:29N 66°50' E 013°45'0 0.1
2017-Dec-02 19:59N 66°50' E 013°45'0 0.1
2017-Dec-02 19:29N 66°50' E 013°45'0 0.1
2017-Dec-02 18:59N 66°50' E 013°45'0 0.0
2017-Dec-02 18:26N 66°50' E 013°45'0 0.0
2017-Dec-02 17:56N 66°50' E 013°45'0 0.0
2017-Dec-02 17:29N 66°50' E 013°45'0 0.0
2017-Dec-02 16:59N 66°50' E 013°45'0 0.0
2017-Dec-02 16:29N 66°50' E 013°45'0 0.1
2017-Dec-02 15:47N 66°50' E 013°45'0 0.0
2017-Dec-02 15:29N 66°51' E 013°45'0 0.0
2017-Dec-02 14:53N 66°51' E 013°45'0 0.0
2017-Dec-02 13:59N 66°50' E 013°45'0 0.2
2017-Dec-02 13:23N 66°50' E 013°45'0 0.0
2017-Dec-02 12:56N 66°50' E 013°45'0 0.0
2017-Dec-02 12:26N 66°50' E 013°45'0 0.1
2017-Dec-02 11:59N 66°50' E 013°45'0 0.1
2017-Dec-02 11:23N 66°50' E 013°45'0 0.1
2017-Dec-02 10:50N 66°50' E 013°45'0 0.0
2017-Dec-02 10:20N 66°50' E 013°45'0 0.0
2017-Dec-02 09:29N 66°50' E 013°45'0 0.1
2017-Dec-02 08:59N 66°50' E 013°45'0 0.0
2017-Dec-02 08:29N 66°50' E 013°45'0 0.0
2017-Dec-02 07:59N 66°50' E 013°45'0 0.0
2017-Dec-02 07:29N 66°50' E 013°45'0 0.0
2017-Dec-02 06:59N 66°50' E 013°45'0 0.1
2017-Dec-02 06:26N 66°50' E 013°45'0 0.0
2017-Dec-02 05:59N 66°50' E 013°45'0 0.1
2017-Dec-02 05:29N 66°50' E 013°45'0 0.0
2017-Dec-02 04:56N 66°50' E 013°45'0 0.1
2017-Dec-02 04:29N 66°50' E 013°45'0 0.0
2017-Dec-02 03:59N 66°50' E 013°45'0 0.2
2017-Dec-02 03:29N 66°50' E 013°45'0 0.1
2017-Dec-02 02:47N 66°50' E 013°45'0 0.0
2017-Dec-02 02:23N 66°50' E 013°45'0 0.1
2017-Dec-02 01:59N 66°50' E 013°45'0 0.1
2017-Dec-02 01:23N 66°50' E 013°45'0 0.1
2017-Dec-02 00:59N 66°50' E 013°45'0 0.1
2017-Dec-02 00:29N 66°50' E 013°45'0 0.0
2017-Dec-01 23:59N 66°50' E 013°45'0 0.1
2017-Dec-01 23:29N 66°50' E 013°45'0 0.1
2017-Dec-01 22:59N 66°50' E 013°45'0 0.1
2017-Dec-01 22:29N 66°50' E 013°45'0 0.2
2017-Dec-01 21:59N 66°50' E 013°45'0 0.1
2017-Dec-01 21:29N 66°50' E 013°45'0 0.1
2017-Dec-01 20:59N 66°50' E 013°45'0 0.0
2017-Dec-01 20:29N 66°50' E 013°45'0 0.1
2017-Dec-01 19:59N 66°50' E 013°45'0 0.1
2017-Dec-01 19:29N 66°50' E 013°45'0 0.0
2017-Dec-01 18:56N 66°50' E 013°45'0 0.1
2017-Dec-01 18:29N 66°50' E 013°45'0 0.0
2017-Dec-01 17:50N 66°50' E 013°45'0 0.0
2017-Dec-01 17:29N 66°50' E 013°45'  

Dump ship's entire track history